Allenwood, New York
Current Conditions -  °F | °C
As of 7:51 AM on Friday 28 Nov 2014 (Local Time) from KLGA Reporting Station
Scattered Clouds Scattered Clouds  
Wind Chill: 22°   Ceiling: Unl
Heat Index: 32°   Visibility: 10mi
Dew Point: 23°   Wind: 14mph
Humidity: 69%   Direction: 310°NW
Pressure: 30.14"   Gusts: NA
Location:  40.786°N, 73.7291°W
Report Text: KLGA 281251Z 31012KT 10SM FEW050 SCT150 00/M05 A3014 RMK AO2 SLP207 T00001050
Loading
Personal Weather Stations






























Interactive Weather Map New forecast layout! Learn more

10-Day Weather Forecast

Advertisements
Track Severe Weather on mobile